sensor_id;sensor_type;location;lat;lon;timestamp;pressure;altitude;pressure_sealevel;temperature;humidity
74613;BME280;63119;51.788;8.824;2023-05-07T00:00:25;100133.06;;;14.57;78.55
74613;BME280;63119;51.788;8.824;2023-05-07T00:02:50;100125.50;;;14.73;78.48
74613;BME280;63119;51.788;8.824;2023-05-07T00:05:17;100124.56;;;14.63;78.65
74613;BME280;63119;51.788;8.824;2023-05-07T00:07:42;100134.50;;;14.61;78.63
74613;BME280;63119;51.788;8.824;2023-05-07T00:10:08;100132.56;;;14.63;78.45
74613;BME280;63119;51.788;8.824;2023-05-07T00:12:33;100139.13;;;14.48;78.88
74613;BME280;63119;51.788;8.824;2023-05-07T00:15:00;100144.09;;;14.41;79.64
74613;BME280;63119;51.788;8.824;2023-05-07T00:17:25;100144.09;;;14.41;79.54
74613;BME280;63119;51.788;8.824;2023-05-07T00:19:50;100139.38;;;14.56;78.72
74613;BME280;63119;51.788;8.824;2023-05-07T00:22:16;100135.25;;;14.52;79.05
74613;BME280;63119;51.788;8.824;2023-05-07T00:24:41;100141.34;;;14.43;79.06
74613;BME280;63119;51.788;8.824;2023-05-07T00:27:06;100139.88;;;14.39;79.32
74613;BME280;63119;51.788;8.824;2023-05-07T00:29:32;100134.56;;;14.39;79.49
74613;BME280;63119;51.788;8.824;2023-05-07T00:31:57;100141.59;;;14.40;79.20
74613;BME280;63119;51.788;8.824;2023-05-07T00:34:22;100136.63;;;14.46;79.25
74613;BME280;63119;51.788;8.824;2023-05-07T00:36:48;100146.41;;;14.46;78.95
74613;BME280;63119;51.788;8.824;2023-05-07T00:39:13;100148.84;;;14.38;79.37
74613;BME280;63119;51.788;8.824;2023-05-07T00:41:39;100151.72;;;14.46;79.20
74613;BME280;63119;51.788;8.824;2023-05-07T00:44:04;100151.47;;;14.49;78.72
74613;BME280;63119;51.788;8.824;2023-05-07T00:46:30;100153.34;;;14.69;77.74
74613;BME280;63119;51.788;8.824;2023-05-07T00:48:55;100159.84;;;14.44;78.73
74613;BME280;63119;51.788;8.824;2023-05-07T00:51:21;100159.34;;;14.50;78.69
74613;BME280;63119;51.788;8.824;2023-05-07T00:53:47;100157.91;;;14.35;78.67
74613;BME280;63119;51.788;8.824;2023-05-07T00:56:12;100161.69;;;14.44;78.62
74613;BME280;63119;51.788;8.824;2023-05-07T00:58:38;100163.84;;;14.50;78.60
74613;BME280;63119;51.788;8.824;2023-05-07T01:01:03;100154.72;;;14.63;77.84
74613;BME280;63119;51.788;8.824;2023-05-07T01:03:28;100155.47;;;14.54;78.14
74613;BME280;63119;51.788;8.824;2023-05-07T01:05:55;100151.75;;;14.77;77.28
74613;BME280;63119;51.788;8.824;2023-05-07T01:08:22;100155.34;;;14.88;76.35
74613;BME280;63119;51.788;8.824;2023-05-07T01:10:50;100154.81;;;14.73;76.71
74613;BME280;63119;51.788;8.824;2023-05-07T01:13:16;100154.81;;;14.73;76.51
74613;BME280;63119;51.788;8.824;2023-05-07T01:15:42;100162.91;;;14.71;76.82
74613;BME280;63119;51.788;8.824;2023-05-07T01:18:08;100155.50;;;14.86;76.04
74613;BME280;63119;51.788;8.824;2023-05-07T01:20:33;100161.03;;;14.94;76.26
74613;BME280;63119;51.788;8.824;2023-05-07T01:23:00;100157.75;;;14.91;75.36
74613;BME280;63119;51.788;8.824;2023-05-07T01:25:25;100154.91;;;14.83;76.03
74613;BME280;63119;51.788;8.824;2023-05-07T01:27:51;100156.56;;;14.84;75.71
74613;BME280;63119;51.788;8.824;2023-05-07T01:30:17;100157.66;;;14.81;75.47
74613;BME280;63119;51.788;8.824;2023-05-07T01:32:48;100160.47;;;14.80;75.52
74613;BME280;63119;51.788;8.824;2023-05-07T01:35:18;100161.84;;;14.74;75.47
74613;BME280;63119;51.788;8.824;2023-05-07T01:37:46;100155.59;;;14.53;76.24
74613;BME280;63119;51.788;8.824;2023-05-07T01:40:11;100156.06;;;14.58;75.89
74613;BME280;63119;51.788;8.824;2023-05-07T01:42:37;100160.38;;;14.70;75.86
74613;BME280;63119;51.788;8.824;2023-05-07T01:45:02;100155.81;;;14.61;75.52
74613;BME280;63119;51.788;8.824;2023-05-07T01:47:29;100150.88;;;14.45;76.00
74613;BME280;63119;51.788;8.824;2023-05-07T01:49:55;100160.47;;;14.37;76.44
74613;BME280;63119;51.788;8.824;2023-05-07T01:52:20;100163.13;;;14.37;76.38
74613;BME280;63119;51.788;8.824;2023-05-07T01:54:45;100161.41;;;14.24;76.73
74613;BME280;63119;51.788;8.824;2023-05-07T01:57:11;100160.72;;;14.22;77.02
74613;BME280;63119;51.788;8.824;2023-05-07T01:59:36;100161.16;;;14.16;77.26
74613;BME280;63119;51.788;8.824;2023-05-07T02:02:01;100165.16;;;14.44;76.27
74613;BME280;63119;51.788;8.824;2023-05-07T02:04:26;100166.59;;;14.26;76.87
74613;BME280;63119;51.788;8.824;2023-05-07T02:06:52;100168.81;;;14.43;76.08
74613;BME280;63119;51.788;8.824;2023-05-07T02:09:18;100163.50;;;14.43;75.86
74613;BME280;63119;51.788;8.824;2023-05-07T02:11:43;100167.47;;;14.15;77.13
74613;BME280;63119;51.788;8.824;2023-05-07T02:14:08;100161.66;;;14.33;76.35
74613;BME280;63119;51.788;8.824;2023-05-07T02:16:33;100173.03;;;14.12;77.05
74613;BME280;63119;51.788;8.824;2023-05-07T02:18:58;100170.97;;;14.05;77.82
74613;BME280;63119;51.788;8.824;2023-05-07T02:21:24;100170.38;;;13.90;77.50
74613;BME280;63119;51.788;8.824;2023-05-07T02:23:50;100162.63;;;13.98;77.47
74613;BME280;63119;51.788;8.824;2023-05-07T02:26:15;100159.13;;;13.87;78.02
74613;BME280;63119;51.788;8.824;2023-05-07T02:28:40;100165.91;;;14.13;76.96
74613;BME280;63119;51.788;8.824;2023-05-07T02:31:06;100164.94;;;14.03;76.85
74613;BME280;63119;51.788;8.824;2023-05-07T02:33:31;100168.56;;;14.02;76.71
74613;BME280;63119;51.788;8.824;2023-05-07T02:35:57;100168.94;;;14.08;76.85
74613;BME280;63119;51.788;8.824;2023-05-07T02:38:22;100173.03;;;13.79;77.37
74613;BME280;63119;51.788;8.824;2023-05-07T02:40:48;100181.75;;;14.03;76.62
74613;BME280;63119;51.788;8.824;2023-05-07T02:43:13;100179.94;;;14.04;76.73
74613;BME280;63119;51.788;8.824;2023-05-07T02:45:38;100179.31;;;13.89;76.57
74613;BME280;63119;51.788;8.824;2023-05-07T02:48:04;100179.44;;;13.99;76.60
74613;BME280;63119;51.788;8.824;2023-05-07T02:50:30;100173.78;;;14.03;76.25
74613;BME280;63119;51.788;8.824;2023-05-07T02:52:57;100172.94;;;14.03;76.27
74613;BME280;63119;51.788;8.824;2023-05-07T02:55:22;100171.94;;;13.93;76.81
74613;BME280;63119;51.788;8.824;2023-05-07T02:57:48;100173.25;;;13.54;78.03
74613;BME280;63119;51.788;8.824;2023-05-07T03:00:14;100181.94;;;13.56;77.67
74613;BME280;63119;51.788;8.824;2023-05-07T03:02:40;100185.81;;;13.52;77.96
74613;BME280;63119;51.788;8.824;2023-05-07T03:05:06;100184.63;;;13.67;77.22
74613;BME280;63119;51.788;8.824;2023-05-07T03:07:31;100181.22;;;13.54;77.49
74613;BME280;63119;51.788;8.824;2023-05-07T03:09:57;100187.94;;;13.36;78.66
74613;BME280;63119;51.788;8.824;2023-05-07T03:12:22;100194.38;;;13.44;78.22
74613;BME280;63119;51.788;8.824;2023-05-07T03:14:47;100189.88;;;13.34;78.25
74613;BME280;63119;51.788;8.824;2023-05-07T03:17:12;100192.25;;;13.26;78.81
74613;BME280;63119;51.788;8.824;2023-05-07T03:19:38;100191.38;;;13.14;79.73
74613;BME280;63119;51.788;8.824;2023-05-07T03:22:03;100183.31;;;13.16;79.42
74613;BME280;63119;51.788;8.824;2023-05-07T03:24:28;100180.78;;;13.01;80.21
74613;BME280;63119;51.788;8.824;2023-05-07T03:26:53;100177.69;;;12.84;80.12
74613;BME280;63119;51.788;8.824;2023-05-07T03:29:19;100174.94;;;12.85;80.84
74613;BME280;63119;51.788;8.824;2023-05-07T03:31:44;100161.75;;;12.84;80.87
74613;BME280;63119;51.788;8.824;2023-05-07T03:34:10;100165.13;;;12.86;80.99
74613;BME280;63119;51.788;8.824;2023-05-07T03:36:35;100162.25;;;12.89;80.93
74613;BME280;63119;51.788;8.824;2023-05-07T03:39:00;100159.41;;;12.92;80.88
74613;BME280;63119;51.788;8.824;2023-05-07T03:41:26;100160.81;;;12.85;80.48
74613;BME280;63119;51.788;8.824;2023-05-07T03:43:51;100163.84;;;12.91;80.46
74613;BME280;63119;51.788;8.824;2023-05-07T03:46:16;100160.97;;;12.94;79.87
74613;BME280;63119;51.788;8.824;2023-05-07T03:48:41;100175.25;;;13.04;79.93
74613;BME280;63119;51.788;8.824;2023-05-07T03:51:07;100176.28;;;12.91;80.31
74613;BME280;63119;51.788;8.824;2023-05-07T03:53:32;100172.22;;;12.98;80.01
74613;BME280;63119;51.788;8.824;2023-05-07T03:55:57;100178.88;;;13.03;79.98
74613;BME280;63119;51.788;8.824;2023-05-07T03:58:22;100177.47;;;13.10;79.46
74613;BME280;63119;51.788;8.824;2023-05-07T04:00:48;100180.50;;;13.17;78.88
74613;BME280;63119;51.788;8.824;2023-05-07T04:03:13;100176.44;;;13.00;79.76
74613;BME280;63119;51.788;8.824;2023-05-07T04:05:39;100180.78;;;13.01;79.93
74613;BME280;63119;51.788;8.824;2023-05-07T04:08:04;100190.19;;;13.18;78.91
74613;BME280;63119;51.788;8.824;2023-05-07T04:10:30;100191.84;;;13.08;79.27
74613;BME280;63119;51.788;8.824;2023-05-07T04:12:56;100196.50;;;13.04;79.60
74613;BME280;63119;51.788;8.824;2023-05-07T04:15:22;100195.38;;;12.96;80.09
74613;BME280;63119;51.788;8.824;2023-05-07T04:17:47;100193.53;;;13.09;79.16
74613;BME280;63119;51.788;8.824;2023-05-07T04:20:15;100200.00;;;13.05;79.61
74613;BME280;63119;51.788;8.824;2023-05-07T04:22:40;100208.03;;;12.92;80.24
74613;BME280;63119;51.788;8.824;2023-05-07T04:25:06;100216.59;;;13.08;79.09
74613;BME280;63119;51.788;8.824;2023-05-07T04:27:33;100208.66;;;12.96;80.01
74613;BME280;63119;51.788;8.824;2023-05-07T04:29:58;100214.59;;;12.99;79.82
74613;BME280;63119;51.788;8.824;2023-05-07T04:32:23;100206.69;;;13.10;79.34
74613;BME280;63119;51.788;8.824;2023-05-07T04:34:50;100205.59;;;12.89;80.13
74613;BME280;63119;51.788;8.824;2023-05-07T04:37:15;100210.22;;;12.98;79.42
74613;BME280;63119;51.788;8.824;2023-05-07T04:39:40;100209.09;;;12.90;79.46
74613;BME280;63119;51.788;8.824;2023-05-07T04:42:06;100209.06;;;13.26;78.34
74613;BME280;63119;51.788;8.824;2023-05-07T04:44:33;100216.69;;;13.07;78.32
74613;BME280;63119;51.788;8.824;2023-05-07T04:46:59;100214.09;;;12.94;78.68
74613;BME280;63119;51.788;8.824;2023-05-07T04:49:24;100218.31;;;13.09;78.74
74613;BME280;63119;51.788;8.824;2023-05-07T04:51:50;100213.81;;;13.34;78.00
74613;BME280;63119;51.788;8.824;2023-05-07T04:54:16;100222.16;;;13.40;77.62
74613;BME280;63119;51.788;8.824;2023-05-07T04:56:41;100219.59;;;13.28;77.70
74613;BME280;63119;51.788;8.824;2023-05-07T04:59:06;100232.56;;;13.20;78.07
74613;BME280;63119;51.788;8.824;2023-05-07T05:01:31;100228.94;;;13.09;78.67
74613;BME280;63119;51.788;8.824;2023-05-07T05:03:57;100235.09;;;13.10;79.25
74613;BME280;63119;51.788;8.824;2023-05-07T05:06:22;100219.06;;;13.23;78.34
74613;BME280;63119;51.788;8.824;2023-05-07T05:08:47;100227.16;;;13.21;77.62
74613;BME280;63119;51.788;8.824;2023-05-07T05:11:12;100227.13;;;13.10;78.05
74613;BME280;63119;51.788;8.824;2023-05-07T05:13:38;100227.66;;;13.26;77.42
74613;BME280;63119;51.788;8.824;2023-05-07T05:16:03;100229.19;;;13.18;77.59
74613;BME280;63119;51.788;8.824;2023-05-07T05:18:28;100235.53;;;13.28;77.20
74613;BME280;63119;51.788;8.824;2023-05-07T05:20:54;100233.63;;;12.93;77.75
74613;BME280;63119;51.788;8.824;2023-05-07T05:23:19;100235.34;;;12.94;78.50
74613;BME280;63119;51.788;8.824;2023-05-07T05:25:45;100238.69;;;12.85;78.90
74613;BME280;63119;51.788;8.824;2023-05-07T05:28:10;100232.06;;;13.14;77.85
74613;BME280;63119;51.788;8.824;2023-05-07T05:30:35;100239.22;;;13.01;78.32
74613;BME280;63119;51.788;8.824;2023-05-07T05:33:00;100239.81;;;13.18;77.64
74613;BME280;63119;51.788;8.824;2023-05-07T05:35:26;100232.03;;;13.38;76.43
74613;BME280;63119;51.788;8.824;2023-05-07T05:37:51;100248.13;;;13.37;76.09
74613;BME280;63119;51.788;8.824;2023-05-07T05:40:17;100237.53;;;13.13;77.53
74613;BME280;63119;51.788;8.824;2023-05-07T05:42:42;100249.03;;;13.25;77.45
74613;BME280;63119;51.788;8.824;2023-05-07T05:45:08;100244.22;;;13.30;77.11
74613;BME280;63119;51.788;8.824;2023-05-07T05:47:33;100247.63;;;12.95;77.02
74613;BME280;63119;51.788;8.824;2023-05-07T05:49:58;100238.75;;;13.20;76.83
74613;BME280;63119;51.788;8.824;2023-05-07T05:52:24;100246.53;;;13.10;76.82
74613;BME280;63119;51.788;8.824;2023-05-07T05:54:49;100249.41;;;13.07;77.13
74613;BME280;63119;51.788;8.824;2023-05-07T05:57:14;100245.81;;;13.08;77.14
74613;BME280;63119;51.788;8.824;2023-05-07T05:59:40;100254.28;;;13.13;77.09
74613;BME280;63119;51.788;8.824;2023-05-07T06:02:06;100255.94;;;13.27;76.56
74613;BME280;63119;51.788;8.824;2023-05-07T06:04:31;100261.19;;;13.40;76.21
74613;BME280;63119;51.788;8.824;2023-05-07T06:06:56;100258.94;;;13.57;75.71
74613;BME280;63119;51.788;8.824;2023-05-07T06:09:22;100258.25;;;13.78;75.19
74613;BME280;63119;51.788;8.824;2023-05-07T06:11:47;100259.97;;;13.90;74.17
74613;BME280;63119;51.788;8.824;2023-05-07T06:14:12;100255.66;;;14.00;74.19
74613;BME280;63119;51.788;8.824;2023-05-07T06:16:38;100263.25;;;14.04;73.24
74613;BME280;63119;51.788;8.824;2023-05-07T06:19:03;100256.75;;;13.97;73.42
74613;BME280;63119;51.788;8.824;2023-05-07T06:21:28;100262.03;;;13.86;73.65
74613;BME280;63119;51.788;8.824;2023-05-07T06:23:53;100266.59;;;13.73;74.42
74613;BME280;63119;51.788;8.824;2023-05-07T06:26:20;100264.56;;;13.42;74.98
74613;BME280;63119;51.788;8.824;2023-05-07T06:28:45;100270.59;;;13.67;74.37
74613;BME280;63119;51.788;8.824;2023-05-07T06:31:15;100285.91;;;13.64;74.23
74613;BME280;63119;51.788;8.824;2023-05-07T06:33:41;100264.50;;;13.65;75.05
74613;BME280;63119;51.788;8.824;2023-05-07T06:36:07;100262.94;;;13.63;74.42
74613;BME280;63119;51.788;8.824;2023-05-07T06:38:32;100271.28;;;13.35;75.31
74613;BME280;63119;51.788;8.824;2023-05-07T06:40:57;100267.88;;;13.56;74.71
74613;BME280;63119;51.788;8.824;2023-05-07T06:43:22;100266.59;;;13.73;74.31
74613;BME280;63119;51.788;8.824;2023-05-07T06:45:48;100271.53;;;13.66;73.77
74613;BME280;63119;51.788;8.824;2023-05-07T06:48:13;100280.53;;;13.88;74.21
74613;BME280;63119;51.788;8.824;2023-05-07T06:50:38;100277.66;;;13.56;74.33
74613;BME280;63119;51.788;8.824;2023-05-07T06:53:03;100285.25;;;13.26;75.30
74613;BME280;63119;51.788;8.824;2023-05-07T06:55:29;100290.88;;;13.34;75.57
74613;BME280;63119;51.788;8.824;2023-05-07T06:57:54;100288.44;;;13.65;75.00
74613;BME280;63119;51.788;8.824;2023-05-07T07:00:20;100291.25;;;13.64;74.60
74613;BME280;63119;51.788;8.824;2023-05-07T07:02:45;100290.94;;;13.91;74.16
74613;BME280;63119;51.788;8.824;2023-05-07T07:05:10;100298.13;;;14.12;73.31
74613;BME280;63119;51.788;8.824;2023-05-07T07:07:35;100294.69;;;13.53;74.42
74613;BME280;63119;51.788;8.824;2023-05-07T07:10:01;100298.53;;;13.84;73.49
74613;BME280;63119;51.788;8.824;2023-05-07T07:12:27;100300.00;;;13.88;73.97
74613;BME280;63119;51.788;8.824;2023-05-07T07:14:53;100301.50;;;14.14;73.97
74613;BME280;63119;51.788;8.824;2023-05-07T07:17:19;100306.97;;;14.13;73.04
74613;BME280;63119;51.788;8.824;2023-05-07T07:19:44;100318.31;;;14.04;73.78
74613;BME280;63119;51.788;8.824;2023-05-07T07:22:09;100315.56;;;13.47;75.13
74613;BME280;63119;51.788;8.824;2023-05-07T07:24:35;100308.59;;;13.57;75.14
74613;BME280;63119;51.788;8.824;2023-05-07T07:27:00;100311.50;;;13.30;76.56
74613;BME280;63119;51.788;8.824;2023-05-07T07:29:25;100309.19;;;13.49;75.78
74613;BME280;63119;51.788;8.824;2023-05-07T07:31:51;100315.69;;;13.80;75.40
74613;BME280;63119;51.788;8.824;2023-05-07T07:34:17;100314.09;;;13.66;74.46
74613;BME280;63119;51.788;8.824;2023-05-07T07:36:42;100308.63;;;13.68;74.26
74613;BME280;63119;51.788;8.824;2023-05-07T07:39:07;100302.34;;;13.58;74.99
74613;BME280;63119;51.788;8.824;2023-05-07T07:41:32;100306.25;;;13.76;74.26
74613;BME280;63119;51.788;8.824;2023-05-07T07:43:58;100309.78;;;13.53;74.45
74613;BME280;63119;51.788;8.824;2023-05-07T07:46:23;100310.38;;;13.45;75.71
74613;BME280;63119;51.788;8.824;2023-05-07T07:48:48;100301.44;;;13.46;75.40
74613;BME280;63119;51.788;8.824;2023-05-07T07:51:14;100313.50;;;13.74;74.38
74613;BME280;63119;51.788;8.824;2023-05-07T07:53:39;100315.34;;;13.50;75.48
74613;BME280;63119;51.788;8.824;2023-05-07T07:56:04;100323.69;;;13.56;75.01
74613;BME280;63119;51.788;8.824;2023-05-07T07:58:30;100309.69;;;13.54;74.61
74613;BME280;63119;51.788;8.824;2023-05-07T08:00:55;100324.22;;;13.61;74.51
74613;BME280;63119;51.788;8.824;2023-05-07T08:03:21;100321.75;;;13.82;74.20
74613;BME280;63119;51.788;8.824;2023-05-07T08:05:46;100313.31;;;13.99;73.46
74613;BME280;63119;51.788;8.824;2023-05-07T08:08:11;100319.88;;;14.17;73.45
74613;BME280;63119;51.788;8.824;2023-05-07T08:10:37;100309.19;;;13.95;73.08
74613;BME280;63119;51.788;8.824;2023-05-07T08:13:04;100319.66;;;14.09;72.99
74613;BME280;63119;51.788;8.824;2023-05-07T08:15:30;100319.94;;;14.51;72.18
74613;BME280;63119;51.788;8.824;2023-05-07T08:17:55;100326.06;;;14.18;72.15
74613;BME280;63119;51.788;8.824;2023-05-07T08:20:22;100325.31;;;14.05;72.78
74613;BME280;63119;51.788;8.824;2023-05-07T08:22:47;100319.88;;;14.06;73.20
74613;BME280;63119;51.788;8.824;2023-05-07T08:25:13;100309.28;;;14.29;73.17
74613;BME280;63119;51.788;8.824;2023-05-07T08:27:38;100312.94;;;14.50;72.38
74613;BME280;63119;51.788;8.824;2023-05-07T08:30:04;100324.50;;;14.15;72.06
74613;BME280;63119;51.788;8.824;2023-05-07T08:32:29;100330.81;;;14.26;72.75
74613;BME280;63119;51.788;8.824;2023-05-07T08:34:54;100319.72;;;14.43;71.40
74613;BME280;63119;51.788;8.824;2023-05-07T08:37:20;100326.84;;;14.42;71.56
74613;BME280;63119;51.788;8.824;2023-05-07T08:39:45;100323.53;;;14.28;71.48
74613;BME280;63119;51.788;8.824;2023-05-07T08:42:12;100339.06;;;14.34;72.24
74613;BME280;63119;51.788;8.824;2023-05-07T08:44:38;100321.84;;;14.27;71.33
74613;BME280;63119;51.788;8.824;2023-05-07T08:47:06;100329.28;;;14.56;71.77
74613;BME280;63119;51.788;8.824;2023-05-07T08:49:33;100329.50;;;14.53;71.17
74613;BME280;63119;51.788;8.824;2023-05-07T08:51:59;100329.16;;;14.58;71.12
74613;BME280;63119;51.788;8.824;2023-05-07T08:54:25;100336.25;;;15.02;70.25
74613;BME280;63119;51.788;8.824;2023-05-07T08:56:51;100334.59;;;15.01;69.92
74613;BME280;63119;51.788;8.824;2023-05-07T08:59:16;100333.19;;;15.28;69.15
74613;BME280;63119;51.788;8.824;2023-05-07T09:01:41;100335.25;;;15.14;68.51
74613;BME280;63119;51.788;8.824;2023-05-07T09:04:07;100327.81;;;14.74;69.92
74613;BME280;63119;51.788;8.824;2023-05-07T09:06:33;100337.66;;;14.74;70.88
74613;BME280;63119;51.788;8.824;2023-05-07T09:09:00;100334.13;;;14.73;70.56
74613;BME280;63119;51.788;8.824;2023-05-07T09:11:26;100346.09;;;14.57;71.12
74613;BME280;63119;51.788;8.824;2023-05-07T09:13:55;100336.16;;;14.48;71.27
74613;BME280;63119;51.788;8.824;2023-05-07T09:16:21;100346.59;;;14.40;71.25
74613;BME280;63119;51.788;8.824;2023-05-07T09:18:51;100335.06;;;14.50;71.51
74613;BME280;63119;51.788;8.824;2023-05-07T09:21:17;100342.25;;;14.61;71.56
74613;BME280;63119;51.788;8.824;2023-05-07T09:23:43;100335.44;;;14.79;71.19
74613;BME280;63119;51.788;8.824;2023-05-07T09:26:09;100346.66;;;15.05;69.66
74613;BME280;63119;51.788;8.824;2023-05-07T09:28:45;100347.06;;;14.78;70.54
74613;BME280;63119;51.788;8.824;2023-05-07T09:31:12;100347.91;;;14.78;70.58
74613;BME280;63119;51.788;8.824;2023-05-07T09:33:38;100343.09;;;15.38;69.47
74613;BME280;63119;51.788;8.824;2023-05-07T09:36:05;100356.19;;;15.29;68.60
74613;BME280;63119;51.788;8.824;2023-05-07T09:38:31;100344.53;;;15.42;68.78
74613;BME280;63119;51.788;8.824;2023-05-07T09:41:02;100341.75;;;15.43;68.65
74613;BME280;63119;51.788;8.824;2023-05-07T09:43:31;100361.16;;;15.34;68.79
74613;BME280;63119;51.788;8.824;2023-05-07T09:45:59;100356.16;;;14.98;69.06
74613;BME280;63119;51.788;8.824;2023-05-07T09:48:28;100352.59;;;15.19;68.41
74613;BME280;63119;51.788;8.824;2023-05-07T09:50:55;100348.47;;;15.15;68.94
74613;BME280;63119;51.788;8.824;2023-05-07T09:53:23;100350.69;;;14.99;68.47
74613;BME280;63119;51.788;8.824;2023-05-07T09:55:50;100342.38;;;15.36;68.54
74613;BME280;63119;51.788;8.824;2023-05-07T09:58:16;100345.03;;;15.36;68.31
74613;BME280;63119;51.788;8.824;2023-05-07T10:00:43;100344.09;;;15.25;69.52
74613;BME280;63119;51.788;8.824;2023-05-07T10:03:09;100337.09;;;15.88;68.47
74613;BME280;63119;51.788;8.824;2023-05-07T10:05:34;100338.53;;;16.33;66.64
74613;BME280;63119;51.788;8.824;2023-05-07T10:08:01;100329.09;;;16.09;66.69
74613;BME280;63119;51.788;8.824;2023-05-07T10:10:27;100325.19;;;15.92;66.52
74613;BME280;63119;51.788;8.824;2023-05-07T10:12:53;100328.91;;;15.80;66.04
74613;BME280;63119;51.788;8.824;2023-05-07T10:15:19;100332.94;;;15.95;66.54
74613;BME280;63119;51.788;8.824;2023-05-07T10:17:44;100342.41;;;15.67;67.28
74613;BME280;63119;51.788;8.824;2023-05-07T10:20:10;100348.81;;;15.76;66.81
74613;BME280;63119;51.788;8.824;2023-05-07T10:22:41;100341.66;;;15.97;66.38
74613;BME280;63119;51.788;8.824;2023-05-07T10:25:25;100354.47;;;15.82;67.08
74613;BME280;63119;51.788;8.824;2023-05-07T10:27:53;100361.19;;;15.77;66.95
74613;BME280;63119;51.788;8.824;2023-05-07T10:30:54;100357.69;;;15.97;66.73
74613;BME280;63119;51.788;8.824;2023-05-07T10:33:24;100354.31;;;15.95;67.09
74613;BME280;63119;51.788;8.824;2023-05-07T10:35:51;100364.97;;;15.95;66.90
74613;BME280;63119;51.788;8.824;2023-05-07T10:38:20;100369.22;;;15.66;66.91
74613;BME280;63119;51.788;8.824;2023-05-07T10:40:46;100367.47;;;15.76;68.32
74613;BME280;63119;51.788;8.824;2023-05-07T10:43:11;100370.81;;;15.89;67.56
74613;BME280;63119;51.788;8.824;2023-05-07T10:45:36;100369.94;;;15.68;66.98
74613;BME280;63119;51.788;8.824;2023-05-07T10:48:14;100364.13;;;16.15;67.18
74613;BME280;63119;51.788;8.824;2023-05-07T10:50:41;100352.81;;;16.23;66.66
74613;BME280;63119;51.788;8.824;2023-05-07T10:55:41;100359.38;;;16.39;65.49
74613;BME280;63119;51.788;8.824;2023-05-07T10:58:23;100353.94;;;16.51;64.59
74613;BME280;63119;51.788;8.824;2023-05-07T11:00:55;100358.91;;;16.55;65.92
74613;BME280;63119;51.788;8.824;2023-05-07T11:03:20;100351.34;;;16.39;65.66
74613;BME280;63119;51.788;8.824;2023-05-07T11:05:47;100359.50;;;16.59;65.62
74613;BME280;63119;51.788;8.824;2023-05-07T11:08:14;100360.78;;;16.94;64.85
74613;BME280;63119;51.788;8.824;2023-05-07T11:13:18;100353.56;;;17.25;64.64
74613;BME280;63119;51.788;8.824;2023-05-07T11:15:48;100352.78;;;17.04;64.20
74613;BME280;63119;51.788;8.824;2023-05-07T11:18:17;100351.91;;;17.53;61.87
74613;BME280;63119;51.788;8.824;2023-05-07T11:26:07;100347.22;;;17.26;64.15
74613;BME280;63119;51.788;8.824;2023-05-07T11:28:42;100348.84;;;17.58;64.12
74613;BME280;63119;51.788;8.824;2023-05-07T11:31:09;100347.06;;;17.18;63.94
74613;BME280;63119;51.788;8.824;2023-05-07T11:33:35;100348.13;;;17.84;63.44
74613;BME280;63119;51.788;8.824;2023-05-07T11:36:04;100338.66;;;17.32;63.32
74613;BME280;63119;51.788;8.824;2023-05-07T11:38:30;100346.31;;;17.85;62.66
74613;BME280;63119;51.788;8.824;2023-05-07T11:40:58;100352.34;;;17.96;62.68
74613;BME280;63119;51.788;8.824;2023-05-07T11:43:27;100343.91;;;17.91;61.63
74613;BME280;63119;51.788;8.824;2023-05-07T11:45:53;100344.53;;;17.17;63.55
74613;BME280;63119;51.788;8.824;2023-05-07T11:48:21;100343.16;;;16.82;63.32
74613;BME280;63119;51.788;8.824;2023-05-07T11:50:50;100344.81;;;17.23;64.29
74613;BME280;63119;51.788;8.824;2023-05-07T11:53:16;100348.50;;;17.32;63.27
74613;BME280;63119;51.788;8.824;2023-05-07T11:55:42;100349.22;;;17.43;63.27
74613;BME280;63119;51.788;8.824;2023-05-07T11:58:09;100351.09;;;17.62;63.20
74613;BME280;63119;51.788;8.824;2023-05-07T12:00:35;100341.06;;;17.35;62.51
74613;BME280;63119;51.788;8.824;2023-05-07T12:03:04;100348.25;;;17.44;62.36
74613;BME280;63119;51.788;8.824;2023-05-07T12:05:30;100340.75;;;18.34;61.83
74613;BME280;63119;51.788;8.824;2023-05-07T12:07:59;100337.28;;;18.05;61.07
74613;BME280;63119;51.788;8.824;2023-05-07T12:10:24;100348.81;;;18.15;61.14
74613;BME280;63119;51.788;8.824;2023-05-07T12:12:50;100339.78;;;18.16;62.44
74613;BME280;63119;51.788;8.824;2023-05-07T12:15:22;100343.03;;;18.10;62.14
74613;BME280;63119;51.788;8.824;2023-05-07T12:17:47;100333.59;;;18.06;60.65
74613;BME280;63119;51.788;8.824;2023-05-07T12:20:13;100349.41;;;17.90;60.53
74613;BME280;63119;51.788;8.824;2023-05-07T12:22:40;100342.59;;;17.38;61.96
74613;BME280;63119;51.788;8.824;2023-05-07T12:25:06;100338.66;;;17.52;62.21
74613;BME280;63119;51.788;8.824;2023-05-07T12:27:31;100344.34;;;17.77;61.61
74613;BME280;63119;51.788;8.824;2023-05-07T12:29:58;100344.56;;;17.45;61.63
74613;BME280;63119;51.788;8.824;2023-05-07T12:32:24;100341.50;;;17.50;61.94
74613;BME280;63119;51.788;8.824;2023-05-07T12:34:50;100335.69;;;17.45;61.94
74613;BME280;63119;51.788;8.824;2023-05-07T12:37:16;100341.22;;;17.72;61.62
74613;BME280;63119;51.788;8.824;2023-05-07T12:40:05;100341.09;;;17.55;62.26
74613;BME280;63119;51.788;8.824;2023-05-07T12:42:35;100341.47;;;18.27;60.59
74613;BME280;63119;51.788;8.824;2023-05-07T12:45:10;100346.72;;;17.99;60.39
74613;BME280;63119;51.788;8.824;2023-05-07T12:47:36;100358.69;;;17.67;61.39
74613;BME280;63119;51.788;8.824;2023-05-07T12:50:02;100355.91;;;17.68;61.60
74613;BME280;63119;51.788;8.824;2023-05-07T12:52:27;100359.13;;;17.62;61.11
74613;BME280;63119;51.788;8.824;2023-05-07T12:54:53;100358.97;;;17.64;61.43